PRIVATE WETTERSTATION BILLIGHEIM-ALLFELD                       ZURCK
Wetterdaten: Sonntag, 29.01.2017
Datum Zeit Temp. A. Temp. A. min Temp. A. max Feuchte A. Luftdruck Regen Wind Richtung Richtung Sonnenschein ET Solar Taupunkt Windchill Windben Empfang
29.01.2017 00:00 -5,9 C -5,9 C -5,8 C 86 % 1022,6 hPa 0,0 l/m 1,1 km/h (1 Bft) N 10 0 min 0,000 mm 0 W/m -7,9 C -5,9 C 4,8 km/h (1 Bft) 99 %
29.01.2017 00:10 -6,1 C -6,1 C -5,9 C 87 % 1022,7 hPa 0,0 l/m 0,0 km/h (0 Bft) N 10 0 min 0,000 mm 0 W/m -7,9 C -6,1 C 3,2 km/h (1 Bft) 100 %
29.01.2017 00:20 -6,1 C -6,1 C -6,1 C 88 % 1022,7 hPa 0,0 l/m 0,0 km/h (0 Bft) N 10 0 min 0,000 mm 0 W/m -7,8 C -6,1 C 0,0 km/h (0 Bft) 99 %
29.01.2017 00:30 -6,0 C -6,1 C -6,0 C 88 % 1022,7 hPa 0,0 l/m 0,0 km/h (0 Bft) N 10 0 min 0,000 mm 0 W/m -7,7 C -6,0 C 0,0 km/h (0 Bft) 100 %
29.01.2017 00:40 -5,9 C -6,0 C -5,9 C 88 % 1022,6 hPa 0,0 l/m 0,0 km/h (0 Bft) N 10 0 min 0,000 mm 0 W/m -7,6 C -5,9 C 0,0 km/h (0 Bft) 98 %
29.01.2017 00:50 -6,1 C -6,1 C -5,9 C 87 % 1022,8 hPa 0,0 l/m 0,0 km/h (0 Bft) N 10 0 min 0,000 mm 0 W/m -7,9 C -6,1 C 1,6 km/h (1 Bft) 97 %
29.01.2017 01:00 -6,3 C -6,3 C -6,1 C 87 % 1022,8 hPa 0,0 l/m 0,1 km/h (0 Bft) N 10 0 min 0,000 mm 0 W/m -8,1 C -6,3 C 3,2 km/h (1 Bft) 97 %
29.01.2017 01:10 -6,4 C -6,4 C -6,3 C 88 % 1022,8 hPa 0,0 l/m 0,0 km/h (0 Bft) N 10 0 min 0,000 mm 0 W/m -8,1 C -6,4 C 1,6 km/h (1 Bft) 97 %
29.01.2017 01:20 -6,2 C -6,4 C -6,2 C 89 % 1022,7 hPa 0,0 l/m 0,3 km/h (0 Bft) N 10 0 min 0,000 mm 0 W/m -7,7 C -6,2 C 3,2 km/h (1 Bft) 98 %
29.01.2017 01:30 -6,3 C -6,3 C -6,2 C 88 % 1022,9 hPa 0,0 l/m 0,0 km/h (0 Bft) N 10 0 min 0,000 mm 0 W/m -8,0 C -6,3 C 0,0 km/h (0 Bft) 97 %
29.01.2017 01:40 -6,6 C -6,6 C -6,3 C 87 % 1022,9 hPa 0,0 l/m 0,3 km/h (0 Bft) N 10 0 min 0,000 mm 0 W/m -8,4 C -6,6 C 3,2 km/h (1 Bft) 98 %
29.01.2017 01:50 -6,6 C -6,6 C -6,6 C 88 % 1022,9 hPa 0,0 l/m 0,0 km/h (0 Bft) N 10 0 min 0,000 mm 0 W/m -8,2 C -6,6 C 0,0 km/h (0 Bft) 96 %
29.01.2017 02:00 -6,6 C -6,6 C -6,6 C 89 % 1022,9 hPa 0,0 l/m 0,0 km/h (0 Bft) N 10 0 min 0,000 mm 0 W/m -8,1 C -6,6 C 0,0 km/h (0 Bft) 97 %
29.01.2017 02:10 -6,6 C -6,6 C -6,5 C 88 % 1022,8 hPa 0,0 l/m 0,0 km/h (0 Bft) N 10 0 min 0,000 mm 0 W/m -8,2 C -6,6 C 0,0 km/h (0 Bft) 97 %
29.01.2017 02:20 -6,8 C -6,8 C -6,6 C 88 % 1022,7 hPa 0,0 l/m 0,0 km/h (0 Bft) N 10 0 min 0,000 mm 0 W/m -8,4 C -6,8 C 0,0 km/h (0 Bft) 89 %
29.01.2017 02:30 -6,8 C -6,8 C -6,8 C 88 % 1022,7 hPa 0,0 l/m 0,0 km/h (0 Bft) N 10 0 min 0,000 mm 0 W/m -8,4 C -6,8 C 1,6 km/h (1 Bft) 97 %
29.01.2017 02:40 -7,1 C -7,1 C -6,8 C 88 % 1022,8 hPa 0,0 l/m 0,0 km/h (0 Bft) N 10 0 min 0,000 mm 0 W/m -8,7 C -7,1 C 0,0 km/h (0 Bft) 97 %
29.01.2017 02:50 -7,3 C -7,3 C -7,1 C 89 % 1022,7 hPa 0,0 l/m 0,0 km/h (0 Bft) N 10 0 min 0,000 mm 0 W/m -8,8 C -7,3 C 0,0 km/h (0 Bft) 89 %
29.01.2017 03:00 -7,3 C -7,3 C -7,3 C 89 % 1022,7 hPa 0,0 l/m 0,0 km/h (0 Bft) N 10 0 min 0,000 mm 0 W/m -8,8 C -7,3 C 0,0 km/h (0 Bft) 97 %
29.01.2017 03:10 -7,3 C -7,4 C -7,3 C 90 % 1022,9 hPa 0,0 l/m 0,0 km/h (0 Bft) N 10 0 min 0,000 mm 0 W/m -8,7 C -7,3 C 0,0 km/h (0 Bft) 98 %
29.01.2017 03:20 -7,5 C -7,5 C -7,3 C 89 % 1022,7 hPa 0,0 l/m 0,0 km/h (0 Bft) N 10 0 min 0,000 mm 0 W/m -9,0 C -7,5 C 0,0 km/h (0 Bft) 98 %
29.01.2017 03:30 -7,7 C -7,7 C -7,5 C 89 % 1022,9 hPa 0,0 l/m 0,5 km/h (0 Bft) N 10 0 min 0,000 mm 0 W/m -9,2 C -7,7 C 3,2 km/h (1 Bft) 97 %
29.01.2017 03:40 -7,9 C -7,9 C -7,7 C 90 % 1022,9 hPa 0,0 l/m 0,0 km/h (0 Bft) N 10 0 min 0,000 mm 0 W/m -9,2 C -7,9 C 0,0 km/h (0 Bft) 98 %
29.01.2017 03:50 -7,9 C -7,9 C -7,8 C 90 % 1023,0 hPa 0,0 l/m 0,0 km/h (0 Bft) N 10 0 min 0,000 mm 0 W/m -9,2 C -7,9 C 0,0 km/h (0 Bft) 97 %
29.01.2017 04:00 -8,0 C -8,0 C -7,9 C 90 % 1023,0 hPa 0,0 l/m 0,4 km/h (0 Bft) N 10 0 min 0,000 mm 0 W/m -9,3 C -8,0 C 3,2 km/h (1 Bft) 90 %
29.01.2017 04:10 -8,1 C -8,1 C -8,0 C 90 % 1023,0 hPa 0,0 l/m 0,2 km/h (0 Bft) N 10 0 min 0,000 mm 0 W/m -9,4 C -8,1 C 3,2 km/h (1 Bft) 97 %
29.01.2017 04:20 -8,2 C -8,2 C -8,1 C 90 % 1023,0 hPa 0,0 l/m 0,2 km/h (0 Bft) N 10 0 min 0,000 mm 0 W/m -9,5 C -8,2 C 3,2 km/h (1 Bft) 97 %
29.01.2017 04:30 -8,3 C -8,3 C -8,2 C 90 % 1023,1 hPa 0,0 l/m 0,0 km/h (0 Bft) N 10 0 min 0,000 mm 0 W/m -9,6 C -8,3 C 0,0 km/h (0 Bft) 97 %
29.01.2017 04:40 -8,3 C -8,4 C -8,3 C 90 % 1023,0 hPa 0,0 l/m 0,0 km/h (0 Bft) N 10 0 min 0,000 mm 0 W/m -9,6 C -8,3 C 0,0 km/h (0 Bft) 97 %
29.01.2017 04:50 -8,4 C -8,4 C -8,3 C 90 % 1023,1 hPa 0,0 l/m 0,0 km/h (0 Bft) N 10 0 min 0,000 mm 0 W/m -9,7 C -8,4 C 0,0 km/h (0 Bft) 100 %
29.01.2017 05:00 -8,6 C -8,6 C -8,4 C 90 % 1023,2 hPa 0,0 l/m 0,5 km/h (0 Bft) N 10 0 min 0,000 mm 0 W/m -9,9 C -8,6 C 3,2 km/h (1 Bft) 99 %
29.01.2017 05:10 -8,6 C -8,7 C -8,6 C 91 % 1023,0 hPa 0,0 l/m 0,0 km/h (0 Bft) N 10 0 min 0,000 mm 0 W/m -9,8 C -8,6 C 0,0 km/h (0 Bft) 100 %
29.01.2017 05:20 -8,4 C -8,6 C -8,4 C 91 % 1023,1 hPa 0,0 l/m 0,0 km/h (0 Bft) N 10 0 min 0,000 mm 0 W/m -9,6 C -8,4 C 0,0 km/h (0 Bft) 100 %
29.01.2017 05:30 -8,5 C -8,5 C -8,4 C 91 % 1023,1 hPa 0,0 l/m 0,2 km/h (0 Bft) N 10 0 min 0,000 mm 0 W/m -9,7 C -8,5 C 3,2 km/h (1 Bft) 100 %
29.01.2017 05:40 -8,6 C -8,6 C -8,5 C 90 % 1023,2 hPa 0,0 l/m 0,0 km/h (0 Bft) N 10 0 min 0,000 mm 0 W/m -9,9 C -8,6 C 0,0 km/h (0 Bft) 100 %
29.01.2017 05:50 -8,7 C -8,7 C -8,6 C 91 % 1023,1 hPa 0,0 l/m 0,0 km/h (0 Bft) N 10 0 min 0,000 mm 0 W/m -9,9 C -8,7 C 0,0 km/h (0 Bft) 100 %
29.01.2017 06:00 -8,7 C -8,7 C -8,6 C 91 % 1023,2 hPa 0,0 l/m 0,0 km/h (0 Bft) N 10 0 min 0,000 mm 0 W/m -9,9 C -8,7 C 0,0 km/h (0 Bft) 100 %
29.01.2017 06:10 -8,8 C -8,8 C -8,7 C 90 % 1023,3 hPa 0,0 l/m 1,0 km/h (0 Bft) N 10 0 min 0,000 mm 0 W/m -10,1 C -8,8 C 4,8 km/h (1 Bft) 99 %
29.01.2017 06:20 -8,9 C -8,9 C -8,8 C 90 % 1023,4 hPa 0,0 l/m 0,4 km/h (0 Bft) N 10 0 min 0,000 mm 0 W/m -10,2 C -8,9 C 4,8 km/h (1 Bft) 100 %
29.01.2017 06:30 -8,9 C -9,0 C -8,9 C 91 % 1023,6 hPa 0,0 l/m 0,0 km/h (0 Bft) N 10 0 min 0,000 mm 0 W/m -10,1 C -8,9 C 0,0 km/h (0 Bft) 100 %
29.01.2017 06:40 -8,9 C -8,9 C -8,9 C 91 % 1023,6 hPa 0,0 l/m 0,0 km/h (0 Bft) N 10 0 min 0,000 mm 0 W/m -10,1 C -8,9 C 0,0 km/h (0 Bft) 100 %
29.01.2017 06:50 -8,8 C -8,9 C -8,8 C 91 % 1023,6 hPa 0,0 l/m 0,0 km/h (0 Bft) N 10 0 min 0,000 mm 0 W/m -10,0 C -8,8 C 0,0 km/h (0 Bft) 91 %
29.01.2017 07:00 -8,9 C -8,9 C -8,8 C 91 % 1023,6 hPa 0,0 l/m 0,0 km/h (0 Bft) N 10 0 min 0,000 mm 0 W/m -10,1 C -8,9 C 0,0 km/h (0 Bft) 100 %
29.01.2017 07:10 -9,0 C -9,0 C -8,9 C 91 % 1023,6 hPa 0,0 l/m 0,0 km/h (0 Bft) N 10 0 min 0,000 mm 0 W/m -10,2 C -9,0 C 0,0 km/h (0 Bft) 99 %
29.01.2017 07:20 -9,1 C -9,1 C -9,0 C 91 % 1023,8 hPa 0,0 l/m 0,0 km/h (0 Bft) N 10 0 min 0,000 mm 0 W/m -10,3 C -9,1 C 0,0 km/h (0 Bft) 100 %
29.01.2017 07:30 -9,2 C -9,2 C -9,1 C 91 % 1024,0 hPa 0,0 l/m 0,3 km/h (0 Bft) N 10 0 min 0,000 mm 0 W/m -10,4 C -9,2 C 3,2 km/h (1 Bft) 100 %
29.01.2017 07:40 -9,3 C -9,3 C -9,2 C 91 % 1024,0 hPa 0,0 l/m 0,3 km/h (0 Bft) N 10 0 min 0,000 mm 0 W/m -10,5 C -9,3 C 3,2 km/h (1 Bft) 91 %
29.01.2017 07:50 -9,3 C -9,4 C -9,3 C 91 % 1024,1 hPa 0,0 l/m 0,3 km/h (0 Bft) N 10 0 min 0,000 mm 0 W/m -10,5 C -9,3 C 3,2 km/h (1 Bft) 100 %
29.01.2017 08:00 -9,2 C -9,3 C -9,2 C 91 % 1024,3 hPa 0,0 l/m 0,0 km/h (0 Bft) N 10 0 min 0,000 mm 5 W/m -10,4 C -9,2 C 0,0 km/h (0 Bft) 100 %
29.01.2017 08:10 -9,3 C -9,3 C -9,2 C 91 % 1024,4 hPa 0,0 l/m 0,0 km/h (0 Bft) N 10 0 min 0,000 mm 9 W/m -10,5 C -9,3 C 1,6 km/h (1 Bft) 100 %
29.01.2017 08:20 -9,3 C -9,3 C -9,3 C 91 % 1024,4 hPa 0,0 l/m 0,0 km/h (0 Bft) N 10 0 min 0,000 mm 14 W/m -10,5 C -9,3 C 0,0 km/h (0 Bft) 100 %
29.01.2017 08:30 -9,2 C -9,3 C -9,2 C 91 % 1024,2 hPa 0,0 l/m 0,0 km/h (0 Bft) N 10 0 min 0,000 mm 19 W/m -10,4 C -9,2 C 0,0 km/h (0 Bft) 99 %
29.01.2017 08:40 -8,9 C -9,2 C -8,9 C 91 % 1024,1 hPa 0,0 l/m 0,0 km/h (0 Bft) N 10 0 min 0,000 mm 25 W/m -10,1 C -8,9 C 0,0 km/h (0 Bft) 100 %
29.01.2017 08:50 -8,7 C -8,9 C -8,7 C 91 % 1024,0 hPa 0,0 l/m 0,0 km/h (0 Bft) N 10 0 min 0,000 mm 47 W/m -9,9 C -8,7 C 0,0 km/h (0 Bft) 100 %
29.01.2017 09:00 -8,5 C -8,7 C -8,5 C 91 % 1024,2 hPa 0,0 l/m 0,0 km/h (0 Bft) N 10 0 min 0,000 mm 51 W/m -9,7 C -8,5 C 0,0 km/h (0 Bft) 99 %
29.01.2017 09:10 -8,3 C -8,5 C -8,3 C 91 % 1024,2 hPa 0,0 l/m 0,0 km/h (0 Bft) N 10 0 min 0,000 mm 113 W/m -9,5 C -8,3 C 0,0 km/h (0 Bft) 100 %
29.01.2017 09:20 -7,8 C -8,3 C -7,8 C 91 % 1024,2 hPa 0,0 l/m 2,8 km/h (1 Bft) N 5 0 min 0,000 mm 137 W/m -9,0 C -7,8 C 6,4 km/h (2 Bft) 100 %
29.01.2017 09:30 -7,2 C -7,8 C -7,2 C 91 % 1024,3 hPa 0,0 l/m 0,6 km/h (0 Bft) N 5 10 min 0,000 mm 158 W/m -8,4 C -7,2 C 4,8 km/h (1 Bft) 100 %
29.01.2017 09:40 -6,5 C -7,2 C -6,5 C 90 % 1024,4 hPa 0,0 l/m 0,0 km/h (0 Bft) N 5 10 min 0,000 mm 251 W/m -7,9 C -6,5 C 0,0 km/h (0 Bft) 100 %
29.01.2017 09:50 -5,6 C -6,5 C -5,6 C 89 % 1024,3 hPa 0,0 l/m 0,0 km/h (0 Bft) N 5 10 min 0,000 mm 246 W/m -7,1 C -5,6 C 0,0 km/h (0 Bft) 99 %
29.01.2017 10:00 -4,6 C -5,6 C -4,6 C 88 % 1024,4 hPa 0,0 l/m 0,0 km/h (0 Bft) N 5 10 min 0,051 mm 237 W/m -6,3 C -4,6 C 3,2 km/h (1 Bft) 100 %
29.01.2017 10:10 -3,7 C -4,6 C -3,7 C 85 % 1024,6 hPa 0,0 l/m 0,0 km/h (0 Bft) N 5 10 min 0,000 mm 262 W/m -5,8 C -3,7 C 0,0 km/h (0 Bft) 100 %
29.01.2017 10:20 -3,2 C -3,7 C -3,2 C 83 % 1024,6 hPa 0,0 l/m 0,0 km/h (0 Bft) N 5 10 min 0,000 mm 248 W/m -5,7 C -3,2 C 0,0 km/h (0 Bft) 100 %
29.01.2017 10:30 -2,6 C -3,2 C -2,6 C 81 % 1024,5 hPa 0,0 l/m 0,3 km/h (0 Bft) N 5 10 min 0,000 mm 290 W/m -5,4 C -2,6 C 4,8 km/h (1 Bft) 100 %
29.01.2017 10:40 -2,1 C -2,6 C -2,1 C 80 % 1024,5 hPa 0,0 l/m 0,2 km/h (0 Bft) N 5 10 min 0,000 mm 353 W/m -5,1 C -2,1 C 4,8 km/h (1 Bft) 100 %
29.01.2017 10:50 -1,3 C -2,1 C -1,3 C 78 % 1024,5 hPa 0,0 l/m 0,0 km/h (0 Bft) N 5 10 min 0,000 mm 283 W/m -4,6 C -1,3 C 0,0 km/h (0 Bft) 100 %
29.01.2017 11:00 -0,7 C -1,3 C -0,7 C 76 % 1024,4 hPa 0,0 l/m 0,0 km/h (0 Bft) N 5 10 min 0,101 mm 322 W/m -4,4 C -0,7 C 0,0 km/h (0 Bft) 100 %
29.01.2017 11:10 -0,2 C -0,7 C -0,2 C 75 % 1024,3 hPa 0,0 l/m 0,0 km/h (0 Bft) N 5 10 min 0,000 mm 297 W/m -4,1 C -0,2 C 0,0 km/h (0 Bft) 98 %
29.01.2017 11:20 0,2 C -0,2 C 0,2 C 72 % 1024,2 hPa 0,0 l/m 0,0 km/h (0 Bft) N 5 10 min 0,000 mm 350 W/m -4,2 C 0,2 C 0,0 km/h (0 Bft) 97 %
29.01.2017 11:30 0,4 C 0,2 C 0,4 C 73 % 1024,3 hPa 0,0 l/m 0,0 km/h (0 Bft) N 5 10 min 0,000 mm 309 W/m -3,9 C 0,4 C 0,0 km/h (0 Bft) 97 %
29.01.2017 11:40 1,2 C 0,4 C 1,2 C 71 % 1024,2 hPa 0,0 l/m 0,0 km/h (0 Bft) N 5 10 min 0,000 mm 281 W/m -3,5 C 1,2 C 0,0 km/h (0 Bft) 97 %
29.01.2017 11:50 1,7 C 1,2 C 1,7 C 69 % 1024,0 hPa 0,0 l/m 0,0 km/h (0 Bft) N 5 10 min 0,000 mm 338 W/m -3,4 C 1,7 C 0,0 km/h (0 Bft) 98 %
29.01.2017 12:00 2,3 C 1,7 C 2,3 C 68 % 1024,0 hPa 0,0 l/m 0,0 km/h (0 Bft) N 5 10 min 0,102 mm 253 W/m -3,0 C 2,3 C 0,0 km/h (0 Bft) 97 %
29.01.2017 12:10 2,3 C 2,2 C 2,3 C 68 % 1023,9 hPa 0,0 l/m 0,0 km/h (0 Bft) N 5 10 min 0,000 mm 294 W/m -3,0 C 2,3 C 1,6 km/h (1 Bft) 97 %
29.01.2017 12:20 2,5 C 2,2 C 2,5 C 67 % 1023,8 hPa 0,0 l/m 0,0 km/h (0 Bft) N 5 10 min 0,000 mm 352 W/m -3,0 C 2,5 C 0,0 km/h (0 Bft) 98 %
29.01.2017 12:30 3,1 C 2,5 C 3,1 C 66 % 1023,8 hPa 0,0 l/m 0,0 km/h (0 Bft) N 5 10 min 0,000 mm 362 W/m -2,6 C 3,1 C 0,0 km/h (0 Bft) 97 %
29.01.2017 12:40 3,3 C 3,1 C 3,3 C 65 % 1023,8 hPa 0,0 l/m 0,0 km/h (0 Bft) N 5 10 min 0,000 mm 341 W/m -2,6 C 3,3 C 1,6 km/h (1 Bft) 98 %
29.01.2017 12:50 3,5 C 3,3 C 3,5 C 65 % 1023,7 hPa 0,0 l/m 0,0 km/h (0 Bft) N 5 10 min 0,000 mm 209 W/m -2,4 C 3,5 C 0,0 km/h (0 Bft) 97 %
29.01.2017 13:00 3,2 C 3,2 C 3,6 C 65 % 1023,5 hPa 0,0 l/m 0,0 km/h (0 Bft) N 5 10 min 0,102 mm 308 W/m -2,7 C 3,2 C 0,0 km/h (0 Bft) 98 %
29.01.2017 13:10 3,6 C 3,2 C 3,6 C 65 % 1023,4 hPa 0,0 l/m 0,0 km/h (0 Bft) N 5 10 min 0,000 mm 341 W/m -2,4 C 3,6 C 0,0 km/h (0 Bft) 97 %
29.01.2017 13:20 3,9 C 3,6 C 3,9 C 63 % 1023,2 hPa 0,0 l/m 0,0 km/h (0 Bft) N 5 10 min 0,000 mm 322 W/m -2,5 C 3,9 C 0,0 km/h (0 Bft) 97 %
29.01.2017 13:30 4,1 C 3,8 C 4,1 C 66 % 1023,1 hPa 0,0 l/m 0,1 km/h (0 Bft) N 5 10 min 0,000 mm 345 W/m -1,7 C 4,1 C 3,2 km/h (1 Bft) 98 %
29.01.2017 13:40 4,5 C 4,1 C 4,5 C 63 % 1022,9 hPa 0,0 l/m 1,4 km/h (1 Bft) N 5 10 min 0,000 mm 343 W/m -1,9 C 4,5 C 4,8 km/h (1 Bft) 97 %
29.01.2017 13:50 4,8 C 4,5 C 4,8 C 62 % 1022,9 hPa 0,0 l/m 0,4 km/h (0 Bft) N 5 10 min 0,000 mm 359 W/m -1,9 C 4,8 C 3,2 km/h (1 Bft) 98 %
29.01.2017 14:00 5,0 C 4,8 C 5,0 C 63 % 1022,8 hPa 0,0 l/m 0,4 km/h (0 Bft) N 5 0 min 0,127 mm 134 W/m -1,4 C 5,0 C 3,2 km/h (1 Bft) 97 %
29.01.2017 14:10 4,8 C 4,8 C 5,0 C 64 % 1022,7 hPa 0,0 l/m 0,9 km/h (0 Bft) NW 306 0 min 0,000 mm 149 W/m -1,4 C 4,8 C 6,4 km/h (2 Bft) 98 %
29.01.2017 14:20 4,3 C 4,3 C 4,8 C 65 % 1022,7 hPa 0,0 l/m 3,2 km/h (1 Bft) SW 229 0 min 0,000 mm 144 W/m -1,7 C 4,3 C 8,0 km/h (2 Bft) 97 %
29.01.2017 14:30 3,9 C 3,9 C 4,3 C 66 % 1022,6 hPa 0,0 l/m 3,2 km/h (1 Bft) S-SW 211 10 min 0,000 mm 156 W/m -1,9 C 3,9 C 9,7 km/h (2 Bft) 99 %
29.01.2017 14:40 3,7 C 3,7 C 3,9 C 68 % 1022,6 hPa 0,0 l/m 0,6 km/h (0 Bft) S-SW 211 0 min 0,000 mm 146 W/m -1,6 C 3,7 C 4,8 km/h (1 Bft) 99 %
29.01.2017 14:50 3,6 C 3,6 C 3,7 C 69 % 1022,6 hPa 0,0 l/m 0,0 km/h (0 Bft) S-SW 211 0 min 0,000 mm 97 W/m -1,5 C 3,6 C 1,6 km/h (1 Bft) 100 %
29.01.2017 15:00 3,3 C 3,3 C 3,6 C 70 % 1022,6 hPa 0,0 l/m 0,1 km/h (0 Bft) S-SW 211 0 min 0,050 mm 111 W/m -1,6 C 3,3 C 3,2 km/h (1 Bft) 100 %
29.01.2017 15:10 3,1 C 3,1 C 3,3 C 72 % 1022,6 hPa 0,0 l/m 0,0 km/h (0 Bft) S-SW 211 0 min 0,000 mm 125 W/m -1,4 C 3,1 C 0,0 km/h (0 Bft) 100 %
29.01.2017 15:20 3,2 C 3,1 C 3,2 C 71 % 1022,6 hPa 0,0 l/m 0,0 km/h (0 Bft) S-SW 211 0 min 0,000 mm 90 W/m -1,5 C 3,2 C 1,6 km/h (1 Bft) 100 %
29.01.2017 15:30 3,2 C 3,2 C 3,2 C 71 % 1022,7 hPa 0,0 l/m 0,0 km/h (0 Bft) S-SW 211 0 min 0,000 mm 84 W/m -1,5 C 3,2 C 0,0 km/h (0 Bft) 100 %
29.01.2017 15:40 3,3 C 3,2 C 3,3 C 69 % 1022,7 hPa 0,0 l/m 0,0 km/h (0 Bft) S-SW 211 0 min 0,000 mm 76 W/m -1,8 C 3,3 C 0,0 km/h (0 Bft) 100 %
29.01.2017 15:50 3,6 C 3,3 C 3,6 C 69 % 1022,7 hPa 0,0 l/m 0,0 km/h (0 Bft) S-SW 211 0 min 0,000 mm 62 W/m -1,5 C 3,6 C 0,0 km/h (0 Bft) 100 %
29.01.2017 16:00 3,7 C 3,6 C 3,7 C 69 % 1022,8 hPa 0,0 l/m 0,0 km/h (0 Bft) S-SW 211 0 min 0,026 mm 47 W/m -1,4 C 3,7 C 0,0 km/h (0 Bft) 100 %
29.01.2017 16:10 3,7 C 3,7 C 3,7 C 69 % 1022,9 hPa 0,0 l/m 0,0 km/h (0 Bft) S-SW 211 0 min 0,000 mm 37 W/m -1,4 C 3,7 C 0,0 km/h (0 Bft) 100 %
29.01.2017 16:20 3,6 C 3,6 C 3,7 C 69 % 1022,9 hPa 0,0 l/m 0,0 km/h (0 Bft) S-SW 211 0 min 0,000 mm 30 W/m -1,5 C 3,6 C 0,0 km/h (0 Bft) 100 %
29.01.2017 16:30 3,5 C 3,5 C 3,6 C 69 % 1022,8 hPa 0,0 l/m 0,0 km/h (0 Bft) S-SW 211 0 min 0,000 mm 23 W/m -1,6 C 3,5 C 0,0 km/h (0 Bft) 100 %
29.01.2017 16:40 3,4 C 3,4 C 3,5 C 70 % 1022,8 hPa 0,0 l/m 0,0 km/h (0 Bft) S-SW 211 0 min 0,000 mm 25 W/m -1,5 C 3,4 C 0,0 km/h (0 Bft) 91 %
29.01.2017 16:50 3,3 C 3,3 C 3,4 C 71 % 1022,9 hPa 0,0 l/m 0,0 km/h (0 Bft) S-SW 211 0 min 0,000 mm 18 W/m -1,4 C 3,3 C 0,0 km/h (0 Bft) 100 %
29.01.2017 17:00 3,2 C 3,2 C 3,3 C 73 % 1022,9 hPa 0,0 l/m 0,0 km/h (0 Bft) S-SW 211 0 min 0,025 mm 11 W/m -1,2 C 3,2 C 0,0 km/h (0 Bft) 100 %
29.01.2017 17:10 3,1 C 3,1 C 3,2 C 73 % 1023,0 hPa 0,0 l/m 0,0 km/h (0 Bft) S-SW 211 0 min 0,000 mm 5 W/m -1,3 C 3,1 C 0,0 km/h (0 Bft) 100 %
29.01.2017 17:20 2,9 C 2,9 C 3,1 C 76 % 1023,0 hPa 0,0 l/m 0,0 km/h (0 Bft) S-SW 211 0 min 0,000 mm 0 W/m -0,9 C 2,9 C 0,0 km/h (0 Bft) 100 %
29.01.2017 17:30 2,8 C 2,8 C 2,9 C 76 % 1023,1 hPa 0,0 l/m 0,0 km/h (0 Bft) S-SW 211 0 min 0,000 mm 0 W/m -1,0 C 2,8 C 0,0 km/h (0 Bft) 100 %
29.01.2017 17:40 2,5 C 2,5 C 2,8 C 76 % 1023,1 hPa 0,0 l/m 0,0 km/h (0 Bft) S-SW 211 0 min 0,000 mm 0 W/m -1,3 C 2,5 C 0,0 km/h (0 Bft) 100 %
29.01.2017 17:50 2,4 C 2,4 C 2,5 C 77 % 1023,0 hPa 0,0 l/m 0,0 km/h (0 Bft) S-SW 211 0 min 0,000 mm 0 W/m -1,2 C 2,4 C 0,0 km/h (0 Bft) 100 %
29.01.2017 18:00 2,3 C 2,3 C 2,4 C 79 % 1023,0 hPa 0,0 l/m 0,0 km/h (0 Bft) S-SW 211 0 min 0,000 mm 0 W/m -1,0 C 2,3 C 0,0 km/h (0 Bft) 100 %
29.01.2017 18:10 2,3 C 2,3 C 2,3 C 80 % 1023,1 hPa 0,0 l/m 0,0 km/h (0 Bft) S-SW 211 0 min 0,000 mm 0 W/m -0,8 C 2,3 C 0,0 km/h (0 Bft) 99 %
29.01.2017 18:20 2,1 C 2,1 C 2,3 C 80 % 1023,1 hPa 0,0 l/m 0,0 km/h (0 Bft) S-SW 211 0 min 0,000 mm 0 W/m -1,0 C 2,1 C 0,0 km/h (0 Bft) 100 %
29.01.2017 18:30 1,9 C 1,9 C 2,1 C 79 % 1023,1 hPa 0,0 l/m 0,0 km/h (0 Bft) S-SW 211 0 min 0,000 mm 0 W/m -1,3 C 1,9 C 0,0 km/h (0 Bft) 100 %
29.01.2017 18:40 1,8 C 1,8 C 1,9 C 81 % 1023,0 hPa 0,0 l/m 0,0 km/h (0 Bft) S-SW 211 0 min 0,000 mm 0 W/m -1,1 C 1,8 C 0,0 km/h (0 Bft) 100 %
29.01.2017 18:50 1,6 C 1,6 C 1,8 C 82 % 1023,0 hPa 0,0 l/m 0,0 km/h (0 Bft) S-SW 211 0 min 0,000 mm 0 W/m -1,1 C 1,6 C 0,0 km/h (0 Bft) 100 %
29.01.2017 19:00 1,4 C 1,4 C 1,6 C 84 % 1022,9 hPa 0,0 l/m 0,1 km/h (0 Bft) S-SW 211 0 min 0,000 mm 0 W/m -1,0 C 1,4 C 1,6 km/h (1 Bft) 100 %
29.01.2017 19:10 1,3 C 1,3 C 1,4 C 85 % 1022,9 hPa 0,0 l/m 0,0 km/h (0 Bft) S-SW 211 0 min 0,000 mm 0 W/m -0,9 C 1,3 C 0,0 km/h (0 Bft) 100 %
29.01.2017 19:20 1,2 C 1,2 C 1,3 C 85 % 1022,9 hPa 0,0 l/m 0,0 km/h (0 Bft) S-SW 211 0 min 0,000 mm 0 W/m -1,0 C 1,2 C 1,6 km/h (1 Bft) 100 %
29.01.2017 19:30 0,9 C 0,9 C 1,2 C 84 % 1022,8 hPa 0,0 l/m 0,2 km/h (0 Bft) S-SW 211 0 min 0,000 mm 0 W/m -1,5 C 0,9 C 3,2 km/h (1 Bft) 100 %
29.01.2017 19:40 0,6 C 0,6 C 0,9 C 85 % 1022,6 hPa 0,0 l/m 0,0 km/h (0 Bft) S-SW 211 0 min 0,000 mm 0 W/m -1,6 C 0,6 C 0,0 km/h (0 Bft) 100 %
29.01.2017 19:50 0,4 C 0,4 C 0,7 C 86 % 1022,6 hPa 0,0 l/m 1,0 km/h (0 Bft) W 263 0 min 0,000 mm 0 W/m -1,7 C 0,4 C 4,8 km/h (1 Bft) 100 %
29.01.2017 20:00 0,3 C 0,3 C 0,4 C 86 % 1022,6 hPa 0,0 l/m 0,9 km/h (0 Bft) NW 308 0 min 0,000 mm 0 W/m -1,8 C 0,3 C 4,8 km/h (1 Bft) 99 %
29.01.2017 20:10 0,3 C 0,3 C 0,3 C 87 % 1022,5 hPa 0,0 l/m 1,3 km/h (1 Bft) N-NW 327 0 min 0,000 mm 0 W/m -1,6 C 0,3 C 4,8 km/h (1 Bft) 100 %
29.01.2017 20:20 0,2 C 0,2 C 0,3 C 87 % 1022,6 hPa 0,0 l/m 0,3 km/h (0 Bft) N-NW 328 0 min 0,000 mm 0 W/m -1,7 C 0,2 C 4,8 km/h (1 Bft) 100 %
29.01.2017 20:30 0,0 C 0,0 C 0,2 C 87 % 1022,5 hPa 0,0 l/m 0,0 km/h (0 Bft) N-NW 328 0 min 0,000 mm 0 W/m -1,9 C 0,0 C 0,0 km/h (0 Bft) 91 %
29.01.2017 20:40 -0,2 C -0,2 C 0,0 C 88 % 1022,4 hPa 0,0 l/m 0,0 km/h (0 Bft) N-NW 328 0 min 0,000 mm 0 W/m -1,9 C -0,2 C 1,6 km/h (1 Bft) 100 %
29.01.2017 20:50 -0,2 C -0,2 C -0,2 C 88 % 1022,2 hPa 0,0 l/m 0,0 km/h (0 Bft) N-NW 328 0 min 0,000 mm 0 W/m -1,9 C -0,2 C 0,0 km/h (0 Bft) 100 %
29.01.2017 21:00 -0,3 C -0,3 C -0,2 C 89 % 1022,2 hPa 0,0 l/m 0,0 km/h (0 Bft) N-NW 329 0 min 0,000 mm 0 W/m -1,9 C -0,3 C 1,6 km/h (1 Bft) 100 %
29.01.2017 21:10 -0,4 C -0,4 C -0,3 C 88 % 1022,1 hPa 0,0 l/m 0,1 km/h (0 Bft) N-NW 329 0 min 0,000 mm 0 W/m -2,1 C -0,4 C 3,2 km/h (1 Bft) 100 %
29.01.2017 21:20 -0,6 C -0,6 C -0,4 C 89 % 1022,1 hPa 0,0 l/m 0,0 km/h (0 Bft) N-NW 329 0 min 0,000 mm 0 W/m -2,2 C -0,6 C 1,6 km/h (1 Bft) 100 %
29.01.2017 21:30 -0,7 C -0,7 C -0,6 C 89 % 1022,0 hPa 0,0 l/m 0,0 km/h (0 Bft) N-NW 329 0 min 0,000 mm 0 W/m -2,3 C -0,7 C 0,0 km/h (0 Bft) 100 %
29.01.2017 21:40 -0,7 C -0,7 C -0,7 C 89 % 1022,0 hPa 0,0 l/m 0,0 km/h (0 Bft) N-NW 329 0 min 0,000 mm 0 W/m -2,3 C -0,7 C 0,0 km/h (0 Bft) 100 %
29.01.2017 21:50 -0,8 C -0,8 C -0,7 C 90 % 1022,0 hPa 0,0 l/m 1,5 km/h (1 Bft) N-NW 329 0 min 0,000 mm 0 W/m -2,2 C -0,8 C 4,8 km/h (1 Bft) 99 %
29.01.2017 22:00 -0,9 C -0,9 C -0,8 C 90 % 1021,9 hPa 0,0 l/m 1,8 km/h (1 Bft) N-NW 329 0 min 0,000 mm 0 W/m -2,3 C -0,9 C 4,8 km/h (1 Bft) 100 %
29.01.2017 22:10 -1,0 C -1,1 C -0,9 C 90 % 1022,0 hPa 0,0 l/m 3,4 km/h (1 Bft) N-NW 333 0 min 0,000 mm 0 W/m -2,4 C -1,0 C 6,4 km/h (2 Bft) 99 %
29.01.2017 22:20 -1,0 C -1,1 C -1,0 C 91 % 1022,0 hPa 0,0 l/m 1,0 km/h (0 Bft) N-NW 334 0 min 0,000 mm 0 W/m -2,3 C -1,0 C 4,8 km/h (1 Bft) 99 %
29.01.2017 22:30 -0,9 C -1,0 C -0,9 C 91 % 1021,9 hPa 0,0 l/m 0,0 km/h (0 Bft) N-NW 334 0 min 0,000 mm 0 W/m -2,2 C -0,9 C 0,0 km/h (0 Bft) 100 %
29.01.2017 22:40 -0,9 C -0,9 C -0,8 C 91 % 1021,9 hPa 0,0 l/m 0,0 km/h (0 Bft) N-NW 334 0 min 0,000 mm 0 W/m -2,2 C -0,9 C 0,0 km/h (0 Bft) 99 %
29.01.2017 22:50 -1,1 C -1,1 C -0,9 C 90 % 1021,8 hPa 0,0 l/m 0,0 km/h (0 Bft) N-NW 334 0 min 0,000 mm 0 W/m -2,5 C -1,1 C 0,0 km/h (0 Bft) 100 %
29.01.2017 23:00 -1,3 C -1,3 C -1,1 C 90 % 1021,9 hPa 0,0 l/m 0,0 km/h (0 Bft) N-NW 334 0 min 0,000 mm 0 W/m -2,7 C -1,3 C 0,0 km/h (0 Bft) 90 %
29.01.2017 23:10 -1,6 C -1,7 C -1,3 C 90 % 1021,8 hPa 0,0 l/m 0,0 km/h (0 Bft) N-NW 334 0 min 0,000 mm 0 W/m -3,0 C -1,6 C 0,0 km/h (0 Bft) 98 %
29.01.2017 23:20 -1,9 C -1,9 C -1,6 C 90 % 1021,8 hPa 0,0 l/m 0,0 km/h (0 Bft) N-NW 334 0 min 0,000 mm 0 W/m -3,3 C -1,9 C 1,6 km/h (1 Bft) 98 %
29.01.2017 23:30 -2,1 C -2,1 C -1,9 C 91 % 1021,8 hPa 0,0 l/m 0,0 km/h (0 Bft) N-NW 334 0 min 0,000 mm 0 W/m -3,4 C -2,1 C 0,0 km/h (0 Bft) 97 %
29.01.2017 23:40 -2,2 C -2,2 C -2,1 C 91 % 1021,7 hPa 0,0 l/m 0,0 km/h (0 Bft) N-NW 334 0 min 0,000 mm 0 W/m -3,5 C -2,2 C 0,0 km/h (0 Bft) 98 %
29.01.2017 23:50 -2,1 C -2,2 C -2,1 C 91 % 1021,7 hPa 0,0 l/m 0,0 km/h (0 Bft) N-NW 334 0 min 0,000 mm 0 W/m -3,4 C -2,1 C 0,0 km/h (0 Bft) 97 %
_ Min-Zeit 07:50 07:50 07:50 13:50 23:40 - 00:10 - - - - - 07:40 07:40 00:20 02:20
Minimum _ -9,4 C -9,4 C -9,3 C 62 % 1021,7 hPa - 0,0 km/h (0 Bft) - - - - - -10,5 C -9,3 C 0,0 km/h (0 Bft) 89 %
_ Max-Zeit 14:00 14:00 14:00 05:10 10:10 00:00 22:10 - - 09:30 14:00 12:30 18:10 14:00 14:30 04:50
Maximum _ 5,0 C 4,8 C 5,0 C 91 % 1024,6 hPa 0,0 l/m 3,4 km/h
N-NW (1 Bft)
- - 10 min 0,127 mm 362 W/m -0,8 C 5,0 C 9,7 km/h
SW (2 Bft)
100 %
Durchschnitt _ -2,5 C -2,6 C -2,4 C 83 % 1023,1 hPa #0,0 l/m 0,2 km/h (0 Bft) N-NW - #4:40 h #0,584 mm 179 W/m -5,2 C -2,5 C 1,4 km/h (1 Bft) 98 %
PRIVATE WETTERSTATION BILLIGHEIM-ALLFELD - www.neckar-odenwald-wetter.de - Holger Sonntag